Terminal Aerodrome Forecast
Issued by NWS Blacksburg, VA

Home | Current Version | Previous Version | Text Only | Print | Product List | Glossary On
Versions: 1 2 3 4 5 6 7 8 9 10 11 12 13
000
FTUS41 KRNK 261724
TAFBLF
TAF
KBLF 261724Z 2618/2718 27008KT P6SM VCTS BKN045CB
     FM262300 29003KT P6SM SCT040 BKN100
     FM270200 00000KT P6SM VCSH BKN040
     FM271500 28006KT P6SM OVC100=

USA.gov is the U.S. government's official web portal to all federal, state and local government web resources and services.